sensor_id;sensor_type;location;lat;lon;timestamp;temperature;humidity
11423;DHT22;5768;51.476;7.210;2023-08-12T00:03:41;22.10;89.50
11423;DHT22;5768;51.476;7.210;2023-08-12T00:08:44;22.30;88.80
11423;DHT22;5768;51.476;7.210;2023-08-12T00:13:47;22.40;87.40
11423;DHT22;5768;51.476;7.210;2023-08-12T00:18:50;22.40;91.50
11423;DHT22;5768;51.476;7.210;2023-08-12T00:23:52;22.40;90.10
11423;DHT22;5768;51.476;7.210;2023-08-12T00:28:56;22.40;89.20
11423;DHT22;5768;51.476;7.210;2023-08-12T00:33:58;22.50;88.70
11423;DHT22;5768;51.476;7.210;2023-08-12T00:39:01;22.40;88.40
11423;DHT22;5768;51.476;7.210;2023-08-12T00:44:06;22.40;89.40
11423;DHT22;5768;51.476;7.210;2023-08-12T00:49:09;22.50;91.40
11423;DHT22;5768;51.476;7.210;2023-08-12T00:54:14;22.50;90.50
11423;DHT22;5768;51.476;7.210;2023-08-12T00:59:20;22.40;87.70
11423;DHT22;5768;51.476;7.210;2023-08-12T01:04:24;22.40;91.10
11423;DHT22;5768;51.476;7.210;2023-08-12T01:09:26;22.40;90.90
11423;DHT22;5768;51.476;7.210;2023-08-12T01:14:35;22.40;91.40
11423;DHT22;5768;51.476;7.210;2023-08-12T01:19:47;22.40;92.00
11423;DHT22;5768;51.476;7.210;2023-08-12T01:24:51;22.50;91.50
11423;DHT22;5768;51.476;7.210;2023-08-12T01:29:55;22.40;91.80
11423;DHT22;5768;51.476;7.210;2023-08-12T01:35:03;22.30;92.00
11423;DHT22;5768;51.476;7.210;2023-08-12T01:40:11;22.30;91.30
11423;DHT22;5768;51.476;7.210;2023-08-12T01:45:16;22.30;91.30
11423;DHT22;5768;51.476;7.210;2023-08-12T01:50:20;22.20;91.50
11423;DHT22;5768;51.476;7.210;2023-08-12T01:55:24;22.10;92.30
11423;DHT22;5768;51.476;7.210;2023-08-12T02:00:27;22.20;93.50
11423;DHT22;5768;51.476;7.210;2023-08-12T02:05:29;22.20;94.10
11423;DHT22;5768;51.476;7.210;2023-08-12T02:10:33;22.20;94.80
11423;DHT22;5768;51.476;7.210;2023-08-12T02:15:35;22.20;94.40
11423;DHT22;5768;51.476;7.210;2023-08-12T02:20:38;22.30;94.30
11423;DHT22;5768;51.476;7.210;2023-08-12T02:25:44;22.30;92.20
11423;DHT22;5768;51.476;7.210;2023-08-12T02:30:46;22.10;93.30
11423;DHT22;5768;51.476;7.210;2023-08-12T02:35:53;22.00;92.30
11423;DHT22;5768;51.476;7.210;2023-08-12T02:40:57;22.00;93.00
11423;DHT22;5768;51.476;7.210;2023-08-12T02:46:00;22.20;95.10
11423;DHT22;5768;51.476;7.210;2023-08-12T02:51:02;22.10;96.40
11423;DHT22;5768;51.476;7.210;2023-08-12T02:56:06;22.10;94.80
11423;DHT22;5768;51.476;7.210;2023-08-12T03:01:08;22.10;94.90
11423;DHT22;5768;51.476;7.210;2023-08-12T03:06:11;22.10;95.90
11423;DHT22;5768;51.476;7.210;2023-08-12T03:11:14;22.10;97.30
11423;DHT22;5768;51.476;7.210;2023-08-12T03:16:19;22.10;97.00
11423;DHT22;5768;51.476;7.210;2023-08-12T03:21:21;22.10;94.90
11423;DHT22;5768;51.476;7.210;2023-08-12T03:26:28;22.10;96.10
11423;DHT22;5768;51.476;7.210;2023-08-12T03:31:30;22.10;94.50
11423;DHT22;5768;51.476;7.210;2023-08-12T03:36:33;22.10;95.70
11423;DHT22;5768;51.476;7.210;2023-08-12T03:41:36;22.10;96.30
11423;DHT22;5768;51.476;7.210;2023-08-12T03:46:39;22.10;95.00
11423;DHT22;5768;51.476;7.210;2023-08-12T03:51:41;22.10;93.20
11423;DHT22;5768;51.476;7.210;2023-08-12T03:56:45;22.10;93.00
11423;DHT22;5768;51.476;7.210;2023-08-12T04:01:47;22.10;92.80
11423;DHT22;5768;51.476;7.210;2023-08-12T04:06:50;22.00;94.70
11423;DHT22;5768;51.476;7.210;2023-08-12T04:11:54;22.00;93.90
11423;DHT22;5768;51.476;7.210;2023-08-12T04:16:57;21.90;94.30
11423;DHT22;5768;51.476;7.210;2023-08-12T04:21:59;22.00;93.30
11423;DHT22;5768;51.476;7.210;2023-08-12T04:27:03;22.00;95.10
11423;DHT22;5768;51.476;7.210;2023-08-12T04:32:05;22.00;94.30
11423;DHT22;5768;51.476;7.210;2023-08-12T04:37:07;22.00;93.40
11423;DHT22;5768;51.476;7.210;2023-08-12T04:42:11;22.10;93.00
11423;DHT22;5768;51.476;7.210;2023-08-12T04:47:13;22.10;93.10
11423;DHT22;5768;51.476;7.210;2023-08-12T04:52:16;22.10;94.70
11423;DHT22;5768;51.476;7.210;2023-08-12T04:57:19;22.10;96.40
11423;DHT22;5768;51.476;7.210;2023-08-12T05:02:24;22.10;93.80
11423;DHT22;5768;51.476;7.210;2023-08-12T05:07:27;22.20;93.40
11423;DHT22;5768;51.476;7.210;2023-08-12T05:12:31;22.30;91.70
11423;DHT22;5768;51.476;7.210;2023-08-12T05:17:33;22.20;92.60
11423;DHT22;5768;51.476;7.210;2023-08-12T05:22:35;22.40;92.70
11423;DHT22;5768;51.476;7.210;2023-08-12T05:27:39;22.50;89.10
11423;DHT22;5768;51.476;7.210;2023-08-12T05:32:42;22.80;86.10
11423;DHT22;5768;51.476;7.210;2023-08-12T05:37:44;23.00;82.10
11423;DHT22;5768;51.476;7.210;2023-08-12T05:42:49;23.00;82.00
11423;DHT22;5768;51.476;7.210;2023-08-12T05:47:54;22.90;83.70
11423;DHT22;5768;51.476;7.210;2023-08-12T05:52:56;22.80;85.10
11423;DHT22;5768;51.476;7.210;2023-08-12T05:57:59;22.50;84.80
11423;DHT22;5768;51.476;7.210;2023-08-12T06:03:02;22.50;85.10
11423;DHT22;5768;51.476;7.210;2023-08-12T06:08:05;22.40;88.50
11423;DHT22;5768;51.476;7.210;2023-08-12T06:13:08;22.40;87.70
11423;DHT22;5768;51.476;7.210;2023-08-12T06:18:11;22.50;85.10
11423;DHT22;5768;51.476;7.210;2023-08-12T06:23:13;22.70;84.00
11423;DHT22;5768;51.476;7.210;2023-08-12T06:28:17;22.90;81.70
11423;DHT22;5768;51.476;7.210;2023-08-12T06:33:22;22.90;81.40
11423;DHT22;5768;51.476;7.210;2023-08-12T06:38:29;22.80;83.00
11423;DHT22;5768;51.476;7.210;2023-08-12T06:43:38;22.80;34.00
11423;DHT22;5768;51.476;7.210;2023-08-12T06:48:43;22.80;81.90
11423;DHT22;5768;51.476;7.210;2023-08-12T06:53:45;22.70;39.50
11423;DHT22;5768;51.476;7.210;2023-08-12T06:58:49;22.60;82.00
11423;DHT22;5768;51.476;7.210;2023-08-12T07:03:57;22.50;82.60
11423;DHT22;5768;51.476;7.210;2023-08-12T07:09:00;22.50;83.60
11423;DHT22;5768;51.476;7.210;2023-08-12T07:14:04;22.40;84.60
11423;DHT22;5768;51.476;7.210;2023-08-12T07:19:06;22.50;84.90
11423;DHT22;5768;51.476;7.210;2023-08-12T07:24:09;22.40;85.00
11423;DHT22;5768;51.476;7.210;2023-08-12T07:29:20;22.50;82.50
11423;DHT22;5768;51.476;7.210;2023-08-12T07:34:48;22.50;84.30
11423;DHT22;5768;51.476;7.210;2023-08-12T07:39:54;22.60;82.80
11423;DHT22;5768;51.476;7.210;2023-08-12T07:44:58;23.20;33.70
11423;DHT22;5768;51.476;7.210;2023-08-12T07:50:00;23.00;29.80
11423;DHT22;5768;51.476;7.210;2023-08-12T07:55:04;23.00;33.40
11423;DHT22;5768;51.476;7.210;2023-08-12T08:00:09;23.40;29.60
11423;DHT22;5768;51.476;7.210;2023-08-12T08:05:12;23.80;26.30
11423;DHT22;5768;51.476;7.210;2023-08-12T08:10:15;24.20;24.90
11423;DHT22;5768;51.476;7.210;2023-08-12T08:15:19;24.20;23.80
11423;DHT22;5768;51.476;7.210;2023-08-12T08:20:27;24.60;23.30
11423;DHT22;5768;51.476;7.210;2023-08-12T08:25:30;24.40;22.80
11423;DHT22;5768;51.476;7.210;2023-08-12T08:30:37;23.90;24.10
11423;DHT22;5768;51.476;7.210;2023-08-12T08:35:42;23.30;26.10
11423;DHT22;5768;51.476;7.210;2023-08-12T08:40:44;23.20;27.70
11423;DHT22;5768;51.476;7.210;2023-08-12T08:45:49;23.60;25.50
11423;DHT22;5768;51.476;7.210;2023-08-12T08:50:55;24.00;24.50
11423;DHT22;5768;51.476;7.210;2023-08-12T08:55:58;24.60;22.90
11423;DHT22;5768;51.476;7.210;2023-08-12T09:01:04;24.20;22.80
11423;DHT22;5768;51.476;7.210;2023-08-12T09:06:07;24.10;25.00
11423;DHT22;5768;51.476;7.210;2023-08-12T09:11:12;24.20;24.00
11423;DHT22;5768;51.476;7.210;2023-08-12T09:16:18;24.40;23.30
11423;DHT22;5768;51.476;7.210;2023-08-12T09:21:20;24.70;21.50
11423;DHT22;5768;51.476;7.210;2023-08-12T09:26:23;24.20;22.70
11423;DHT22;5768;51.476;7.210;2023-08-12T09:31:28;24.10;23.40
11423;DHT22;5768;51.476;7.210;2023-08-12T09:36:33;24.00;24.00
11423;DHT22;5768;51.476;7.210;2023-08-12T09:41:37;24.10;22.80
11423;DHT22;5768;51.476;7.210;2023-08-12T09:46:44;24.10;23.30
11423;DHT22;5768;51.476;7.210;2023-08-12T09:51:49;24.20;22.80
11423;DHT22;5768;51.476;7.210;2023-08-12T09:56:56;23.90;23.30
11423;DHT22;5768;51.476;7.210;2023-08-12T10:02:02;23.90;23.80
11423;DHT22;5768;51.476;7.210;2023-08-12T10:07:06;24.00;23.00
11423;DHT22;5768;51.476;7.210;2023-08-12T10:12:15;24.00;23.50
11423;DHT22;5768;51.476;7.210;2023-08-12T10:17:19;24.00;23.10
11423;DHT22;5768;51.476;7.210;2023-08-12T10:22:21;24.10;22.60
11423;DHT22;5768;51.476;7.210;2023-08-12T10:27:26;23.90;22.70
11423;DHT22;5768;51.476;7.210;2023-08-12T10:32:30;24.40;21.40
11423;DHT22;5768;51.476;7.210;2023-08-12T10:37:34;23.70;22.80
11423;DHT22;5768;51.476;7.210;2023-08-12T10:42:43;24.00;22.70
11423;DHT22;5768;51.476;7.210;2023-08-12T10:48:10;24.10;22.00
11423;DHT22;5768;51.476;7.210;2023-08-12T10:53:27;24.50;21.30
11423;DHT22;5768;51.476;7.210;2023-08-12T10:58:44;24.70;20.30
11423;DHT22;5768;51.476;7.210;2023-08-12T11:03:49;24.50;21.50
11423;DHT22;5768;51.476;7.210;2023-08-12T11:08:53;23.70;24.00
11423;DHT22;5768;51.476;7.210;2023-08-12T11:13:56;23.90;25.40
11423;DHT22;5768;51.476;7.210;2023-08-12T11:19:00;23.60;28.10
11423;DHT22;5768;51.476;7.210;2023-08-12T11:24:05;24.00;27.30
11423;DHT22;5768;51.476;7.210;2023-08-12T11:29:10;24.20;25.50
11423;DHT22;5768;51.476;7.210;2023-08-12T11:34:15;24.00;27.10
11423;DHT22;5768;51.476;7.210;2023-08-12T11:39:18;24.50;26.30
11423;DHT22;5768;51.476;7.210;2023-08-12T11:44:22;25.00;24.10
11423;DHT22;5768;51.476;7.210;2023-08-12T11:49:26;24.30;25.20
11423;DHT22;5768;51.476;7.210;2023-08-12T11:54:31;24.80;24.80
11423;DHT22;5768;51.476;7.210;2023-08-12T11:59:35;25.50;22.10
11423;DHT22;5768;51.476;7.210;2023-08-12T12:04:41;24.70;22.80
11423;DHT22;5768;51.476;7.210;2023-08-12T12:09:44;24.60;22.90
11423;DHT22;5768;51.476;7.210;2023-08-12T12:14:47;24.90;22.90
11423;DHT22;5768;51.476;7.210;2023-08-12T12:19:55;24.90;22.30
11423;DHT22;5768;51.476;7.210;2023-08-12T12:25:00;25.80;20.80
11423;DHT22;5768;51.476;7.210;2023-08-12T12:30:08;25.90;19.80
11423;DHT22;5768;51.476;7.210;2023-08-12T12:35:13;26.10;20.00
11423;DHT22;5768;51.476;7.210;2023-08-12T12:40:15;26.60;19.20
11423;DHT22;5768;51.476;7.210;2023-08-12T12:45:17;26.30;19.50
11423;DHT22;5768;51.476;7.210;2023-08-12T12:50:21;26.60;18.80
11423;DHT22;5768;51.476;7.210;2023-08-12T12:55:23;24.90;20.80
11423;DHT22;5768;51.476;7.210;2023-08-12T13:00:26;23.30;26.70
11423;DHT22;5768;51.476;7.210;2023-08-12T13:05:30;23.00;29.20
11423;DHT22;5768;51.476;7.210;2023-08-12T13:10:32;22.70;29.10
11423;DHT22;5768;51.476;7.210;2023-08-12T13:15:35;22.80;35.70
11423;DHT22;5768;51.476;7.210;2023-08-12T13:20:39;22.70;32.70
11423;DHT22;5768;51.476;7.210;2023-08-12T13:25:41;23.30;28.60
11423;DHT22;5768;51.476;7.210;2023-08-12T13:30:44;23.40;28.30
11423;DHT22;5768;51.476;7.210;2023-08-12T13:35:48;23.80;27.30
11423;DHT22;5768;51.476;7.210;2023-08-12T13:40:50;24.20;25.20
11423;DHT22;5768;51.476;7.210;2023-08-12T13:45:53;25.60;21.50
11423;DHT22;5768;51.476;7.210;2023-08-12T13:50:57;24.70;22.40
11423;DHT22;5768;51.476;7.210;2023-08-12T13:55:59;24.20;24.70
11423;DHT22;5768;51.476;7.210;2023-08-12T14:01:01;24.00;25.50
11423;DHT22;5768;51.476;7.210;2023-08-12T14:06:08;24.10;25.80
11423;DHT22;5768;51.476;7.210;2023-08-12T14:11:10;23.10;28.10
11423;DHT22;5768;51.476;7.210;2023-08-12T14:16:12;23.20;29.40
11423;DHT22;5768;51.476;7.210;2023-08-12T14:21:16;23.60;28.40
11423;DHT22;5768;51.476;7.210;2023-08-12T14:26:19;23.60;27.40
11423;DHT22;5768;51.476;7.210;2023-08-12T14:31:21;24.00;26.40
11423;DHT22;5768;51.476;7.210;2023-08-12T14:36:25;24.20;26.00
11423;DHT22;5768;51.476;7.210;2023-08-12T14:41:27;24.40;24.00
11423;DHT22;5768;51.476;7.210;2023-08-12T14:46:29;26.80;18.90
11423;DHT22;5768;51.476;7.210;2023-08-12T14:51:33;27.70;17.60
11423;DHT22;5768;51.476;7.210;2023-08-12T14:56:36;29.50;16.30
11423;DHT22;5768;51.476;7.210;2023-08-12T15:01:38;28.50;16.10
11423;DHT22;5768;51.476;7.210;2023-08-12T15:06:41;29.10;16.10
11423;DHT22;5768;51.476;7.210;2023-08-12T15:11:44;28.90;15.60
11423;DHT22;5768;51.476;7.210;2023-08-12T15:16:46;27.30;16.20
11423;DHT22;5768;51.476;7.210;2023-08-12T15:21:49;26.10;17.20
11423;DHT22;5768;51.476;7.210;2023-08-12T15:26:52;25.20;19.20
11423;DHT22;5768;51.476;7.210;2023-08-12T15:31:54;25.00;19.40
11423;DHT22;5768;51.476;7.210;2023-08-12T15:36:58;28.00;17.30
11423;DHT22;5768;51.476;7.210;2023-08-12T15:42:00;34.10;13.50
11423;DHT22;5768;51.476;7.210;2023-08-12T15:47:03;35.70;11.80
11423;DHT22;5768;51.476;7.210;2023-08-12T15:52:07;37.40;11.20
11423;DHT22;5768;51.476;7.210;2023-08-12T15:57:09;32.00;12.00
11423;DHT22;5768;51.476;7.210;2023-08-12T16:02:11;35.40;11.20
11423;DHT22;5768;51.476;7.210;2023-08-12T16:07:18;37.80;9.90
11423;DHT22;5768;51.476;7.210;2023-08-12T16:12:20;37.70;10.10
11423;DHT22;5768;51.476;7.210;2023-08-12T16:17:22;39.30;9.30
11423;DHT22;5768;51.476;7.210;2023-08-12T16:22:26;39.20;8.80
11423;DHT22;5768;51.476;7.210;2023-08-12T16:27:29;37.50;8.90
11423;DHT22;5768;51.476;7.210;2023-08-12T16:32:31;32.90;9.80
11423;DHT22;5768;51.476;7.210;2023-08-12T16:37:35;32.90;10.10
11423;DHT22;5768;51.476;7.210;2023-08-12T16:42:37;36.50;9.40
11423;DHT22;5768;51.476;7.210;2023-08-12T16:47:40;36.40;9.20
11423;DHT22;5768;51.476;7.210;2023-08-12T16:52:44;35.90;9.20
11423;DHT22;5768;51.476;7.210;2023-08-12T16:57:46;36.40;8.80
11423;DHT22;5768;51.476;7.210;2023-08-12T17:02:48;38.90;8.50
11423;DHT22;5768;51.476;7.210;2023-08-12T17:07:52;38.40;8.30
11423;DHT22;5768;51.476;7.210;2023-08-12T17:12:54;39.40;8.10
11423;DHT22;5768;51.476;7.210;2023-08-12T17:17:56;36.00;8.40
11423;DHT22;5768;51.476;7.210;2023-08-12T17:23:00;35.90;8.20
11423;DHT22;5768;51.476;7.210;2023-08-12T17:28:03;31.80;9.10
11423;DHT22;5768;51.476;7.210;2023-08-12T17:33:06;30.20;9.70
11423;DHT22;5768;51.476;7.210;2023-08-12T17:38:09;29.60;10.00
11423;DHT22;5768;51.476;7.210;2023-08-12T17:43:12;28.80;10.00
11423;DHT22;5768;51.476;7.210;2023-08-12T17:48:14;29.00;10.20
11423;DHT22;5768;51.476;7.210;2023-08-12T17:53:18;28.20;10.30
11423;DHT22;5768;51.476;7.210;2023-08-12T17:58:20;28.70;10.30
11423;DHT22;5768;51.476;7.210;2023-08-12T18:03:23;28.60;10.50
11423;DHT22;5768;51.476;7.210;2023-08-12T18:08:26;30.20;10.10
11423;DHT22;5768;51.476;7.210;2023-08-12T18:13:29;29.10;10.30
11423;DHT22;5768;51.476;7.210;2023-08-12T18:18:31;29.30;10.10
11423;DHT22;5768;51.476;7.210;2023-08-12T18:23:35;27.00;10.70
11423;DHT22;5768;51.476;7.210;2023-08-12T18:28:37;26.20;11.30
11423;DHT22;5768;51.476;7.210;2023-08-12T18:33:39;25.70;11.80
11423;DHT22;5768;51.476;7.210;2023-08-12T18:38:43;25.30;11.90
11423;DHT22;5768;51.476;7.210;2023-08-12T18:43:46;24.90;12.20
11423;DHT22;5768;51.476;7.210;2023-08-12T18:48:48;24.50;13.00
11423;DHT22;5768;51.476;7.210;2023-08-12T18:53:52;24.10;12.90
11423;DHT22;5768;51.476;7.210;2023-08-12T18:58:54;23.80;13.50
11423;DHT22;5768;51.476;7.210;2023-08-12T19:03:56;23.50;13.40
11423;DHT22;5768;51.476;7.210;2023-08-12T19:09:00;23.20;14.10
11423;DHT22;5768;51.476;7.210;2023-08-12T19:14:03;23.10;13.70
11423;DHT22;5768;51.476;7.210;2023-08-12T19:19:05;23.00;13.90
11423;DHT22;5768;51.476;7.210;2023-08-12T19:24:09;22.80;14.50
11423;DHT22;5768;51.476;7.210;2023-08-12T19:29:11;22.60;14.80
11423;DHT22;5768;51.476;7.210;2023-08-12T19:34:14;22.50;15.10
11423;DHT22;5768;51.476;7.210;2023-08-12T19:39:20;22.20;15.30
11423;DHT22;5768;51.476;7.210;2023-08-12T19:44:22;21.80;15.70
11423;DHT22;5768;51.476;7.210;2023-08-12T19:49:25;21.80;15.90
11423;DHT22;5768;51.476;7.210;2023-08-12T19:54:28;21.60;16.20
11423;DHT22;5768;51.476;7.210;2023-08-12T19:59:31;21.60;16.50
11423;DHT22;5768;51.476;7.210;2023-08-12T20:04:33;21.30;16.60
11423;DHT22;5768;51.476;7.210;2023-08-12T20:09:37;21.30;16.80
11423;DHT22;5768;51.476;7.210;2023-08-12T20:14:39;21.20;17.10
11423;DHT22;5768;51.476;7.210;2023-08-12T20:19:42;21.00;17.50
11423;DHT22;5768;51.476;7.210;2023-08-12T20:24:45;21.00;17.50
11423;DHT22;5768;51.476;7.210;2023-08-12T20:29:47;20.90;17.70
11423;DHT22;5768;51.476;7.210;2023-08-12T20:34:50;20.90;17.70
11423;DHT22;5768;51.476;7.210;2023-08-12T20:39:54;20.80;17.50
11423;DHT22;5768;51.476;7.210;2023-08-12T20:44:57;20.70;17.90
11423;DHT22;5768;51.476;7.210;2023-08-12T20:49:59;20.70;17.90
11423;DHT22;5768;51.476;7.210;2023-08-12T20:55:03;20.70;18.20
11423;DHT22;5768;51.476;7.210;2023-08-12T21:00:07;20.70;18.20
11423;DHT22;5768;51.476;7.210;2023-08-12T21:05:12;20.60;18.40
11423;DHT22;5768;51.476;7.210;2023-08-12T21:10:16;20.60;18.10
11423;DHT22;5768;51.476;7.210;2023-08-12T21:15:18;20.50;18.00
11423;DHT22;5768;51.476;7.210;2023-08-12T21:20:21;20.50;18.10
11423;DHT22;5768;51.476;7.210;2023-08-12T21:25:24;20.40;18.30
11423;DHT22;5768;51.476;7.210;2023-08-12T21:30:27;20.40;18.30
11423;DHT22;5768;51.476;7.210;2023-08-12T21:35:29;20.20;18.40
11423;DHT22;5768;51.476;7.210;2023-08-12T21:40:33;20.10;18.30
11423;DHT22;5768;51.476;7.210;2023-08-12T21:45:35;20.10;18.40
11423;DHT22;5768;51.476;7.210;2023-08-12T21:50:37;20.00;18.40
11423;DHT22;5768;51.476;7.210;2023-08-12T21:55:42;19.90;18.30
11423;DHT22;5768;51.476;7.210;2023-08-12T22:00:44;19.90;17.90
11423;DHT22;5768;51.476;7.210;2023-08-12T22:05:46;19.90;17.70
11423;DHT22;5768;51.476;7.210;2023-08-12T22:10:52;19.90;17.70
11423;DHT22;5768;51.476;7.210;2023-08-12T22:15:55;19.80;17.90
11423;DHT22;5768;51.476;7.210;2023-08-12T22:20:57;19.80;18.00
11423;DHT22;5768;51.476;7.210;2023-08-12T22:26:01;19.70;18.40
11423;DHT22;5768;51.476;7.210;2023-08-12T22:31:04;19.80;18.00
11423;DHT22;5768;51.476;7.210;2023-08-12T22:36:06;19.70;18.10
11423;DHT22;5768;51.476;7.210;2023-08-12T22:41:10;19.60;18.30
11423;DHT22;5768;51.476;7.210;2023-08-12T22:46:14;19.50;18.20
11423;DHT22;5768;51.476;7.210;2023-08-12T22:51:16;19.50;18.10
11423;DHT22;5768;51.476;7.210;2023-08-12T22:56:20;19.50;18.40
11423;DHT22;5768;51.476;7.210;2023-08-12T23:01:22;19.40;18.30
11423;DHT22;5768;51.476;7.210;2023-08-12T23:06:25;19.40;18.30
11423;DHT22;5768;51.476;7.210;2023-08-12T23:11:28;19.40;18.30
11423;DHT22;5768;51.476;7.210;2023-08-12T23:16:31;19.30;18.80
11423;DHT22;5768;51.476;7.210;2023-08-12T23:21:33;19.40;18.70
11423;DHT22;5768;51.476;7.210;2023-08-12T23:26:37;19.50;18.10
11423;DHT22;5768;51.476;7.210;2023-08-12T23:31:39;19.50;18.00
11423;DHT22;5768;51.476;7.210;2023-08-12T23:36:42;19.60;18.10
11423;DHT22;5768;51.476;7.210;2023-08-12T23:41:45;19.70;18.00
11423;DHT22;5768;51.476;7.210;2023-08-12T23:46:47;19.60;18.00
11423;DHT22;5768;51.476;7.210;2023-08-12T23:51:50;19.60;18.00
11423;DHT22;5768;51.476;7.210;2023-08-12T23:56:53;19.50;17.90
